Granite Falls, WA

1:25 PM PDT on September 17, 2014 (GMT -0700)
APRSWXNET Lake Bosworth WA US | Change Station
CLOSE
Current Station
Personal Weather Station
Location: Lake Stevens, WA
Elevation: 665 ft
Nearby Weather Stations
4.0 Earthquake: Seabeck, Washington (10 hours ago)  

Elev 665 ft 48.04 °N, 121.97 °W | Updated 30 minutes ago

Mostly Cloudy
Mostly Cloudy
67 °F
Feels Like 67 °F
N
1
Wind Variable Wind from NE
Gusts 3.0 mph

Today
High -- | Low -- °F
--% Chance of Precip.
Yesterday
High -- | Low -- °F
Precip. -- in
6:46 AM 7:14 PM
Waning Crescent, 33% visible
Pressure 29.76 in
Visibility 10.0 miles
Clouds Few 12000 ft
Dew Point 63 °F
Humidity 88%
Rainfall 0.00 in
Snow Depth 0 in , 0 in , 0 in
UV 6 out of 12
Pollen 1.40 out of 12
PM2.5 Moderate
Flu Activity Not available.
METAR KAWO 172015Z AUTO 32006KT 10SM FEW120 21/14 A2976 RMK AO1

More Conditions Fewer Conditions

Pressure 29.76 in
Visibility 10.0 miles
Clouds Few 12000 ft
Dew Point 63 °F
Humidity 88%
Rainfall 0.00 in
Snow Depth 0 in , 0 in , 0 in
UV 6 out of 12
Pollen 1.40 out of 12
PM2.5 Moderate
Flu Activity Not available.
METAR KAWO 172015Z AUTO 32006KT 10SM FEW120 21/14 A2976 RMK AO1

More Conditions Fewer Conditions

10-Day Weather Forecast

Almanac

Astronomy

Sep. 17, 2014 Rise Set
Actual Time 6:46 AM PDT 7:14 PM PDT
Civil Twilight 6:15 AM PDT 7:45 PM PDT
Nautical Twilight 5:38 AM PDT 8:22 PM PDT
Astronomical Twilight 4:59 AM PDT 9:00 PM PDT
Moon 12:32 AM PDT 3:46 PM PDT
Length of Visible Light 13h 30m
Length of Day
12h 28m
Tomorrow will be 3m 28s shorter.
Waning Crescent, 33% of the Moon is Illuminated
Today
Waning Crescent
Sep 24
New
Oct 1
First Quarter
Oct 8
Full
Oct 15
Last Quarter

Today's Extremes

State Highs State Lows

Community

WunderPhotos

Upload Photos

1,754,157 photos uploaded!

Nearby

Air Quality

  Air Quality AQ Index Pollutant
Yesterday Moderate
PM2.5
Yesterday Good
OZONE
Current Moderate
PM2.5
Wednesday Good
PM2.5
Wednesday Good
OZONE
Thursday Good
OZONE
Thursday Good
PM2.5
Friday Good
OZONE
Friday Good
PM2.5
Saturday Good
PM2.5
Saturday Good
OZONE
Sunday Good
PM2.5
Sunday Good
OZONE
Monday Good
OZONE
Monday Good
PM2.5

Snow Depth

Station Depth Elevation
Grouse Camp 0 in 5380 ft
Harts Pass 0 in 6500 ft
Stevens Pass 0 in 4070 ft
Trough 0 in 5300 ft
Touchet 0 in 5530 ft

Earthquake Activity

City Distance Mag. Time & Date
Seabeck, Washington 70 miles 4.0 3:06 AM PDT
2014-09-17
Morton, Washington 123 miles 3.0 5:43 AM PDT
2014-09-16
Minimum magnitude displayed is 2.5.

Coastal Water Temperatures

Place Temperature
Port Townsend, WA 53.1 °F
Seattle, WA 55.9 °F
Friday Harbor, WA 52.0 °F
Tacoma, WA 55.9 °F

Nearby Weather Stations